METAR Data
IDs: Format: Raw Decoded Include TAF

Data at: 0951 UTC 18 Jan 2019

PAAQ 180853Z AUTO 00000KT 10SM CLR M11/M15 A2959 RMK AO2 SLP026 I3000 T11111150 410171111 55001 TSNO
PAAQ 180753Z AUTO 00000KT 10SM CLR M10/M13 A2959 RMK AO2 SLP025 T11001128 TSNO
PAAQ 180653Z AUTO 00000KT 10SM CLR M09/M12 A2959 RMK AO2 SLP026 I1000 T10941122 TSNO
PAAQ 180553Z AUTO 00000KT 10SM CLR M09/M12 A2959 RMK AO2 SLP026 I1000 I6001 T10941117 11067 21100 51002 TSNO
PAAQ 180453Z AUTO 00000KT 10SM CLR M09/M11 A2959 RMK AO2 SLP026 I1000 T10891111 TSNO
PAAQ 180353Z AUTO 00000KT 10SM CLR M08/M11 A2960 RMK AO2 SLP028 I1000 T10781106 TSNO
PAAQ 180253Z VRB03KT 4SM BR CLR M08/M11 A2959 RMK AO2 SLP025 I1001 I3001 T10831106 56005
PAAQ 180245Z 02003KT 2SM BR CLR M09/M11 A2959 RMK AO2 I1001 T10891111
PAAQ 180236Z 16004KT 1SM HZ CLR M09/M12 A2959 RMK AO2 I1001 T10941122
PAAQ 180200Z 04003KT 1SM BR VV001 M09/M11 A2959 RMK AO2 T10891106
PAAQ 180153Z 00000KT 2SM BR FEW002 M08/M10 A2959 RMK AO2 SLP027 I1000 T10831100
PAAQ 180149Z 00000KT 2SM BR FEW002 M09/M10 A2960 RMK AO2 I1000
PAAQ 180053Z 00000KT 8SM CLR M07/M09 A2960 RMK AO2 SLP030 T10671089
PAAQ 172353Z 16003KT 6SM BR CLR M08/M09 A2961 RMK AO2 SLP033 I6000 T10831094 11072 21106 58007
PAAQ 172253Z 16003KT 7SM CLR M08/M09 A2963 RMK AO2 SLP038 VCFG S T10831089
PAAQ 172153Z 00000KT 10SM CLR M08/M09 A2963 RMK AO2 SLP038 T10781089
PAAQ 172053Z 00000KT 10SM CLR M09/M09 A2963 RMK AO2 SLP040 I3000 T10891094 58007
PAAQ 171953Z AUTO 00000KT 8SM CLR M08/M09 A2965 RMK AO2 SLP045 I1000 T10831094 TSNO
PAAQ 171853Z AUTO 00000KT 10SM CLR M10/M12 A2965 RMK AO2 SLP047 I1000 T11001117 TSNO
PAAQ 171753Z AUTO 00000KT 10SM CLR M07/M08 A2965 RMK AO2 SLP046 I6002 T10671083 11044 21094 56007 TSNO
PAAQ 171653Z AUTO 00000KT 10SM CLR M07/M08 A2966 RMK AO2 SLP049 I1001 T10721083 TSNO
PAAQ 171553Z AUTO 10003KT 10SM CLR M09/M10 A2966 RMK AO2 SLP051 I1000 T10891100 TSNO
PAAQ 171453Z AUTO 01006KT 10SM CLR M06/M09 A2968 RMK AO2 SLP054 I3001 T10611094 58012 TSNO
PAAQ 171353Z AUTO 00000KT 10SM CLR M06/M08 A2969 RMK AO2 SLP058 I1001 T10611078 TSNO
PAAQ 171253Z AUTO 08003KT 10SM CLR M08/M08 A2970 RMK AO2 SLP064 I1000 T10781078 TSNO
PAAQ 171153Z AUTO 08003KT 10SM CLR M09/M09 A2971 RMK AO2 SLP065 T10891094 11011 21089 56004 TSNO
PAAQ 171053Z AUTO 06003KT 10SM CLR M07/M08 A2972 RMK AO2 SLP068 T10671078 TSNO
PAAQ 170953Z AUTO 36009KT 10SM CLR M02/M09 A2971 RMK AO2 SLP065 T10221089 TSNO
PAAQ 170853Z AUTO 08004KT 10SM CLR M07/M08 A2972 RMK AO2 SLP071 T10671078 400111089 51004 TSNO
PAAQ 170753Z AUTO 03006KT 10SM CLR M02/M08 A2972 RMK AO2 SLP069 T10221083 TSNO
PAAQ 170653Z AUTO 04006KT 10SM CLR M02/M08 A2972 RMK AO2 SLP067 T10221078 TSNO
PAAQ 170553Z AUTO VRB04KT 10SM FEW080 BKN100 M03/M07 A2971 RMK AO2 SLP066 T10281072 11006 21044 52004 TSNO
PAAQ 170453Z AUTO 00000KT 10SM OVC090 M04/M06 A2971 RMK AO2 SLP065 T10391061 TSNO
PAAQ 170353Z AUTO 07004KT 10SM OVC100 M04/M06 A2970 RMK AO2 SLP062 T10391061 TSNO
PAAQ 170253Z AUTO 00000KT 10SM OVC110 M04/M06 A2970 RMK AO2 SLP062 T10391056 53002 TSNO
PAAQ 170153Z AUTO 00000KT 10SM OVC110 M03/M06 A2969 RMK AO2 SLP059 T10281061 TSNO
PAAQ 170053Z 11004KT 10SM OVC110 M03/M07 A2969 RMK AO2 SLP059 T10331067
PAAQ 162353Z 02007KT 10SM OVC100 M01/M07 A2969 RMK AO2 SLP059 T10061067 10000 21067 58000
PAAQ 162253Z 05005KT 10SM FEW080 OVC100 M06/M07 A2970 RMK AO2 SLP062 T10561072
PAAQ 162153Z 15003KT 10SM CLR M06/M08 A2970 RMK AO2 SLP061 T10561078